Portada
METAR-TAF:

METAR-TAF

Aeroports :

Puerto Escondido, Mèxic

latitud: 15-52N, longitud: 097-05W, altitud: 88 m

Observació

L'informe es va fer fa 29 minuts, a les 13:47 UTC
Vent calma
Temperatura 27°C
Humitat 89%
Pressió 1011 hPa
Visibilitat: 19.3 km
Cel clar

METAR: MMPS 251347Z 00000KT 12SM SKC 27/25 A2984 RMK HZY

Hora: 09:16 (14:16 UTC)

Pronòstic

L'informe es va fer fa 10 hores i 1 minuts, a les 04:15 UTC
Pronòstic vàlid del 25 a les 06 UTC al 26 a les 06 UTC
Vent 5 kt del Nord/Nord-Est
Visibilitat: 10 km
Cel clar
A partir de les 25 a les 1800 UTC
Vent 8 kt del Oest/Sud-Oest
Visibilitat: 10 km
Núvols disperses a una alçada de 2000 ft
A partir de les 26 a les 0200 UTC
Vent 5 kt del Nord/Nord-Est
Visibilitat: 10 km
Cel clar

TAF: MMPS 250415Z 2506/2606 02005KT P6SM SKC FM251800 24008KT P6SM SCT020 FM260200 02005KT P6SM SKC

Observacions i pronòstics meteorològics de més de 4000 aeroports (METAR i TAF).

Les estacions disponibles són els punts grocs i vermells al mapa.

Posi el ratolí al punt desitjat per veure el nom de l'estació.

Feu clic per veure les observacions i els pronòstics meteorològics.

Per canviar el mapa: feu clic els botons verds amb una creu de color negre per apropar; al botó verd amb un guió per allunyar la imatge; o en les fletxes verdes per a mapes adjacents.


METAR-TAF: